Time;durP1;ratioP1;P1;durP2;ratioP2;P2;SDS_P1;SDS_P2;PMS_P1;PMS_P2;Temp;Humidity;BMP_temperature;BMP_pressure;BME280_temperature;BME280_humidity;BME280_pressure;Samples;Min_cycle;Max_cycle;Signal;HPM_P1;HPM_P2
2023/09/08 00:00:49;;;;;;;9.20;6.60;;;18.20;1.00;;;;;;7392531;19;20007;-67
2023/09/08 00:03:22;;;;;;;9.75;6.70;;;18.20;1.00;;;;;;7392158;19;20094;-68
2023/09/08 00:05:52;;;;;;;8.50;6.50;;;18.30;1.00;;;;;;7390294;19;20016;-68
2023/09/08 00:08:23;;;;;;;12.02;7.47;;;18.20;1.00;;;;;;7393003;19;20014;-68
2023/09/08 00:10:53;;;;;;;14.57;7.85;;;18.20;1.00;;;;;;7392168;19;20116;-67
2023/09/08 00:13:25;;;;;;;11.38;8.27;;;18.10;1.00;;;;;;7391641;19;20006;-67
2023/09/08 00:15:58;;;;;;;9.45;7.78;;;18.20;1.00;;;;;;7392610;19;20009;-67
2023/09/08 00:18:30;;;;;;;13.15;8.05;;;18.20;1.00;;;;;;7392093;19;20506;-66
2023/09/08 00:21:01;;;;;;;10.15;7.95;;;18.20;1.00;;;;;;7390871;19;20002;-66
2023/09/08 00:23:31;;;;;;;12.73;8.63;;;18.20;1.00;;;;;;7388678;19;20435;-68
2023/09/08 00:26:01;;;;;;;10.45;8.57;;;18.00;1.00;;;;;;7389601;19;20006;-68
2023/09/08 00:28:31;;;;;;;11.70;8.63;;;18.00;1.00;;;;;;7392059;19;20033;-67
2023/09/08 00:31:02;;;;;;;12.98;8.57;;;18.00;1.00;;;;;;7390547;19;20034;-68
2023/09/08 00:33:34;;;;;;;12.77;8.60;;;17.90;1.00;;;;;;7391108;19;20066;-68
2023/09/08 00:36:05;;;;;;;12.68;9.18;;;18.00;1.00;;;;;;7387701;19;20018;-67
2023/09/08 00:38:34;;;;;;;16.95;9.38;;;17.90;1.00;;;;;;7391701;19;20404;-67
2023/09/08 00:41:06;;;;;;;11.02;9.30;;;17.80;1.00;;;;;;7390240;19;20014;-66
2023/09/08 00:43:36;;;;;;;12.45;9.45;;;17.80;1.00;;;;;;7390959;19;20011;-66
2023/09/08 00:46:07;;;;;;;13.90;8.75;;;17.70;1.00;;;;;;7390248;19;20070;-68
2023/09/08 00:48:40;;;;;;;11.25;9.25;;;17.60;1.00;;;;;;7391457;19;20017;-67
2023/09/08 00:51:10;;;;;;;12.07;8.73;;;17.60;1.00;;;;;;7386932;19;20041;-67
2023/09/08 00:53:40;;;;;;;14.23;9.80;;;17.60;1.00;;;;;;7390514;19;20027;-68
2023/09/08 00:56:12;;;;;;;14.07;8.68;;;17.50;1.00;;;;;;7390370;19;20865;-68
2023/09/08 00:58:42;;;;;;;12.65;9.75;;;17.50;1.00;;;;;;7386899;19;20022;-66
2023/09/08 01:01:12;;;;;;;13.68;9.63;;;17.50;1.00;;;;;;7389177;19;20015;-67
2023/09/08 01:03:45;;;;;;;15.85;10.07;;;17.40;1.00;;;;;;7390162;19;20030;-67
2023/09/08 01:06:16;;;;;;;14.90;10.63;;;17.40;1.00;;;;;;7386152;19;20387;-67
2023/09/08 01:08:47;;;;;;;13.95;10.32;;;17.50;1.00;;;;;;7389342;19;20498;-67
2023/09/08 01:11:17;;;;;;;16.27;10.27;;;17.40;1.00;;;;;;7388050;19;20032;-67
2023/09/08 01:13:47;;;;;;;23.75;10.43;;;17.30;1.00;;;;;;7389635;19;20007;-67
2023/09/08 01:16:17;;;;;;;13.32;10.45;;;17.30;1.00;;;;;;7390576;19;20031;-67
2023/09/08 01:18:52;;;;;;;11.68;9.80;;;17.30;1.00;;;;;;7394248;19;20027;-68
2023/09/08 01:21:48;;;;;;;32.90;9.43;;;17.30;1.00;;;;;;7395881;19;20010;-67
2023/09/08 01:24:35;;;;;;;15.38;9.18;;;17.30;1.00;;;;;;7397140;19;20034;-68
2023/09/08 01:27:13;;;;;;;14.05;9.85;;;17.30;1.00;;;;;;7396368;19;20362;-67
2023/09/08 01:29:45;;;;;;;13.52;8.95;;;17.30;1.00;;;;;;7394982;19;20014;-68
2023/09/08 01:32:15;;;;;;;11.98;9.32;;;17.30;1.00;;;;;;7398247;19;20316;-68
2023/09/08 01:34:48;;;;;;;13.55;9.30;;;17.30;1.00;;;;;;7395908;19;20358;-67
2023/09/08 01:37:21;;;;;;;13.70;10.00;;;17.30;1.00;;;;;;7397220;19;20070;-68
2023/09/08 01:39:50;;;;;;;11.15;9.57;;;17.40;1.00;;;;;;7396650;19;20536;-68
2023/09/08 01:42:23;;;;;;;12.15;9.10;;;17.30;1.00;;;;;;7396644;19;20010;-68
2023/09/08 01:44:55;;;;;;;13.70;9.75;;;17.30;1.00;;;;;;7395475;19;20006;-68
2023/09/08 01:47:25;;;;;;;11.30;8.82;;;17.20;1.00;;;;;;7397633;19;20014;-69
2023/09/08 01:49:55;;;;;;;11.88;9.10;;;17.10;1.00;;;;;;7396460;19;20010;-68
2023/09/08 01:52:26;;;;;;;10.40;8.35;;;17.10;1.00;;;;;;7397223;19;20077;-67
2023/09/08 01:54:56;;;;;;;13.20;8.57;;;17.20;1.00;;;;;;7395613;19;20078;-68
2023/09/08 01:57:29;;;;;;;12.38;8.95;;;17.20;1.00;;;;;;7396456;19;20014;-68
2023/09/08 01:59:58;;;;;;;14.82;9.02;;;17.20;1.00;;;;;;7396115;19;20023;-67
2023/09/08 02:02:28;;;;;;;10.27;8.32;;;17.20;1.00;;;;;;7396728;19;20031;-67
2023/09/08 02:04:58;;;;;;;12.02;7.78;;;17.20;1.00;;;;;;7395676;19;20087;-66
2023/09/08 02:07:28;;;;;;;11.65;8.57;;;17.10;1.00;;;;;;7396749;19;20018;-67
2023/09/08 02:09:58;;;;;;;11.43;8.27;;;17.10;1.00;;;;;;7397151;19;20010;-67
2023/09/08 02:12:31;;;;;;;12.30;8.52;;;17.10;1.00;;;;;;7396328;19;20014;-67
2023/09/08 02:15:00;;;;;;;12.68;8.55;;;17.20;1.00;;;;;;7394772;19;20209;-67
2023/09/08 02:17:32;;;;;;;10.77;8.30;;;17.10;1.00;;;;;;7396619;19;20022;-67
2023/09/08 02:20:02;;;;;;;9.93;7.80;;;17.10;1.00;;;;;;7394939;19;20022;-67
2023/09/08 02:22:32;;;;;;;9.48;8.40;;;17.00;1.00;;;;;;7397204;19;20015;-67
2023/09/08 02:25:02;;;;;;;10.27;8.85;;;16.90;1.00;;;;;;7393997;19;20034;-67
2023/09/08 02:27:36;;;;;;;11.75;8.43;;;17.00;1.00;;;;;;7396637;19;20078;-67
2023/09/08 02:30:07;;;;;;;14.18;7.93;;;17.00;1.00;;;;;;7394466;19;20015;-67
2023/09/08 02:32:37;;;;;;;10.82;7.95;;;16.90;1.00;;;;;;7396296;19;20474;-67
2023/09/08 02:35:07;;;;;;;9.98;8.10;;;16.80;1.00;;;;;;7393975;19;20367;-68
2023/09/08 02:37:37;;;;;;;15.15;8.98;;;16.90;1.00;;;;;;7393111;19;20484;-67
2023/09/08 02:40:09;;;;;;;11.73;9.68;;;16.90;1.00;;;;;;7392984;19;20078;-68
2023/09/08 02:42:41;;;;;;;11.23;7.85;;;16.90;1.00;;;;;;7395899;19;20010;-67
2023/09/08 02:45:13;;;;;;;9.80;8.27;;;16.70;1.00;;;;;;7394713;19;20481;-67
2023/09/08 02:47:43;;;;;;;9.75;8.65;;;16.70;1.00;;;;;;7393921;19;20014;-68
2023/09/08 02:50:13;;;;;;;11.07;8.00;;;16.70;1.00;;;;;;7395109;19;20018;-67
2023/09/08 02:52:42;;;;;;;8.55;7.40;;;16.50;1.00;;;;;;7396114;19;20010;-67
2023/09/08 02:55:13;;;;;;;8.23;7.32;;;16.30;1.00;;;;;;7394981;19;20089;-67
2023/09/08 02:57:45;;;;;;;7.85;7.05;;;16.10;1.00;;;;;;7395927;19;20014;-67
2023/09/08 03:00:16;;;;;;;12.50;7.93;;;15.80;1.00;;;;;;7395090;19;20085;-67
2023/09/08 03:02:46;;;;;;;9.30;7.60;;;15.60;4.20;;;;;;7395910;19;20021;-67
2023/09/08 03:05:16;;;;;;;11.65;7.90;;;15.50;10.20;;;;;;7394331;19;20407;-68
2023/09/08 03:07:49;;;;;;;9.93;7.95;;;15.40;13.20;;;;;;7392528;19;20035;-67
2023/09/08 03:10:19;;;;;;;10.52;8.52;;;15.40;14.90;;;;;;7393534;19;20010;-67
2023/09/08 03:12:52;;;;;;;9.23;7.50;;;15.40;17.70;;;;;;7395022;19;20007;-67
2023/09/08 03:15:22;;;;;;;8.73;7.82;;;15.30;18.40;;;;;;7393228;19;20010;-67
2023/09/08 03:17:52;;;;;;;12.13;7.75;;;15.20;20.20;;;;;;7395231;19;20018;-67
2023/09/08 03:20:22;;;;;;;11.00;7.72;;;15.10;22.30;;;;;;7393692;19;20659;-67
2023/09/08 03:22:52;;;;;;;10.80;8.40;;;15.00;26.40;;;;;;7394244;19;20031;-67
2023/09/08 03:25:22;;;;;;;9.73;8.25;;;15.10;29.20;;;;;;7392397;19;20078;-67
2023/09/08 03:27:54;;;;;;;10.07;8.25;;;15.10;27.10;;;;;;7392664;19;20014;-68
2023/09/08 03:30:24;;;;;;;12.18;8.25;;;15.20;27.40;;;;;;7393391;19;20038;-67
2023/09/08 03:32:54;;;;;;;12.50;8.57;;;15.30;27.80;;;;;;7394974;19;20015;-67
2023/09/08 03:35:24;;;;;;;13.40;9.73;;;15.40;27.30;;;;;;7392759;19;20589;-67
2023/09/08 03:37:54;;;;;;;14.10;10.43;;;15.50;27.80;;;;;;7394398;19;20078;-67
2023/09/08 03:40:24;;;;;;;14.40;10.40;;;15.60;28.20;;;;;;7392126;19;20024;-68
2023/09/08 03:42:57;;;;;;;13.25;10.75;;;15.70;27.60;;;;;;7393656;19;20082;-68
2023/09/08 03:45:27;;;;;;;15.38;11.65;;;15.70;25.70;;;;;;7392475;19;20607;-67
2023/09/08 03:47:56;;;;;;;15.82;11.18;;;15.70;26.20;;;;;;7392676;19;20202;-67
2023/09/08 03:50:27;;;;;;;15.25;11.02;;;15.70;24.60;;;;;;7392460;19;20015;-68
2023/09/08 03:52:56;;;;;;;16.95;12.00;;;15.70;24.80;;;;;;7393757;19;20011;-67
2023/09/08 03:55:26;;;;;;;15.20;10.80;;;15.70;23.40;;;;;;7391984;19;20014;-67
2023/09/08 03:57:59;;;;;;;10.88;9.35;;;15.60;22.80;;;;;;7394567;19;20367;-67
2023/09/08 04:00:29;;;;;;;12.02;9.13;;;15.40;20.40;;;;;;7392738;19;20014;-67
2023/09/08 04:02:59;;;;;;;10.98;9.27;;;15.30;23.30;;;;;;7393264;19;20038;-67
2023/09/08 04:05:29;;;;;;;15.73;9.35;;;15.20;23.90;;;;;;7391628;19;20025;-68
2023/09/08 04:07:59;;;;;;;12.05;9.35;;;15.00;26.90;;;;;;7391760;19;20463;-68
2023/09/08 04:10:29;;;;;;;10.50;8.57;;;15.00;31.90;;;;;;7390728;19;20392;-67
2023/09/08 04:13:02;;;;;;;10.70;8.23;;;15.00;32.00;;;;;;7393495;19;20104;-67
2023/09/08 04:15:32;;;;;;;8.85;7.90;;;14.90;33.10;;;;;;7391145;19;20005;-67
2023/09/08 04:18:02;;;;;;;9.48;8.30;;;14.80;36.60;;;;;;7393744;19;20111;-67
2023/09/08 04:20:32;;;;;;;10.40;9.02;;;14.80;38.00;;;;;;7391736;19;20011;-67
2023/09/08 04:23:01;;;;;;;10.18;8.82;;;14.80;38.90;;;;;;7393473;19;20015;-67
2023/09/08 04:25:31;;;;;;;11.02;8.90;;;14.80;41.00;;;;;;7391129;19;20470;-68
2023/09/08 04:28:04;;;;;;;10.90;9.27;;;14.80;41.40;;;;;;7391053;19;20467;-67
2023/09/08 04:30:34;;;;;;;12.48;8.40;;;14.90;39.80;;;;;;7391732;19;20014;-67
2023/09/08 04:33:04;;;;;;;13.23;8.93;;;14.90;39.60;;;;;;7391129;19;20038;-67
2023/09/08 04:35:34;;;;;;;10.80;8.85;;;15.00;40.20;;;;;;7391225;19;20020;-67
2023/09/08 04:38:04;;;;;;;14.30;10.52;;;15.00;38.80;;;;;;7389213;19;20429;-67
2023/09/08 04:40:34;;;;;;;12.00;9.57;;;15.10;42.40;;;;;;7391077;19;20470;-67
2023/09/08 04:43:07;;;;;;;15.15;10.57;;;15.20;39.60;;;;;;7391201;19;20027;-67
2023/09/08 04:45:37;;;;;;;12.35;9.43;;;15.20;40.20;;;;;;7391624;19;20514;-67
2023/09/08 04:48:08;;;;;;;15.30;10.48;;;15.30;35.10;;;;;;7390188;19;20077;-67
2023/09/08 04:50:38;;;;;;;16.08;10.77;;;15.40;33.50;;;;;;7391358;19;20541;-68
2023/09/08 04:53:09;;;;;;;14.90;10.35;;;15.50;32.50;;;;;;7395721;19;20034;-67
2023/09/08 04:55:39;;;;;;;16.48;10.93;;;15.60;28.50;;;;;;7399272;19;20014;-68
2023/09/08 04:58:12;;;;;;;17.35;10.82;;;15.60;24.80;;;;;;7398947;19;20018;-67
2023/09/08 05:00:42;;;;;;;14.95;10.25;;;15.70;22.20;;;;;;7398644;19;20018;-66
2023/09/08 05:03:12;;;;;;;15.73;10.85;;;15.80;19.40;;;;;;7398758;19;20031;-67
2023/09/08 05:05:42;;;;;;;15.48;11.27;;;15.90;16.60;;;;;;7399222;19;20014;-66
2023/09/08 05:08:12;;;;;;;16.05;9.93;;;16.20;8.40;;;;;;7396722;19;20595;-66
2023/09/08 05:10:42;;;;;;;14.25;9.80;;;16.40;1.00;;;;;;7398385;19;20089;-68
2023/09/08 05:13:14;;;;;;;13.05;10.15;;;17.20;1.00;;;;;;7398615;19;20380;-68
2023/09/08 05:16:10;;;;;;;13.52;9.68;;;18.10;1.00;;;;;;7399417;19;20473;-68
2023/09/08 05:18:41;;;;;;;16.33;9.80;;;18.80;1.00;;;;;;7399157;19;20018;-68
2023/09/08 05:21:11;;;;;;;15.15;9.40;;;19.00;1.00;;;;;;7395727;19;20069;-67
2023/09/08 05:23:41;;;;;;;16.15;9.93;;;19.30;1.00;;;;;;7397745;19;20014;-68
2023/09/08 05:26:11;;;;;;;12.77;8.93;;;19.40;1.00;;;;;;7398573;19;20332;-67
2023/09/08 05:28:43;;;;;;;12.35;9.85;;;19.80;1.00;;;;;;7396586;19;20078;-68
2023/09/08 05:31:14;;;;;;;11.65;9.00;;;19.60;1.00;;;;;;7396487;19;20014;-67
2023/09/08 05:33:44;;;;;;;11.38;8.95;;;17.80;1.00;;;;;;7396961;19;20399;-68
2023/09/08 05:36:14;;;;;;;12.70;8.88;;;17.40;1.00;;;;;;7397239;19;20070;-67
2023/09/08 05:38:44;;;;;;;12.85;8.65;;;17.20;1.00;;;;;;7397674;19;20021;-67
2023/09/08 05:41:14;;;;;;;10.95;8.43;;;17.20;1.00;;;;;;7394643;19;20437;-67
2023/09/08 05:43:47;;;;;;;12.32;8.70;;;17.30;1.00;;;;;;7394746;19;20483;-67
2023/09/08 05:46:18;;;;;;;13.50;8.57;;;17.30;1.00;;;;;;7396600;19;20091;-66
2023/09/08 05:48:48;;;;;;;10.30;8.23;;;17.20;1.00;;;;;;7394382;19;20393;-68
2023/09/08 05:51:18;;;;;;;10.52;8.00;;;17.20;1.00;;;;;;7393555;19;20080;-66
2023/09/08 05:53:48;;;;;;;12.75;8.10;;;17.30;1.00;;;;;;7394822;19;20015;-67
2023/09/08 05:56:18;;;;;;;13.40;8.18;;;17.40;1.00;;;;;;7396070;19;20011;-67
2023/09/08 05:58:50;;;;;;;11.23;8.32;;;17.40;1.00;;;;;;7396686;19;20025;-67
2023/09/08 06:01:20;;;;;;;11.15;8.98;;;17.60;1.00;;;;;;7394303;19;20037;-67
2023/09/08 06:03:51;;;;;;;12.45;8.35;;;17.50;1.00;;;;;;7393862;19;20357;-67
2023/09/08 06:06:21;;;;;;;15.85;8.63;;;17.50;1.00;;;;;;7396436;19;20052;-67
2023/09/08 06:08:51;;;;;;;13.75;8.65;;;17.60;1.00;;;;;;7395252;19;20019;-67
2023/09/08 06:11:21;;;;;;;12.32;8.65;;;17.80;1.00;;;;;;7394202;19;20027;-67
2023/09/08 06:13:58;;;;;;;12.57;8.43;;;17.70;1.00;;;;;;7394924;19;20015;-67
2023/09/08 06:16:29;;;;;;;12.25;7.95;;;17.80;1.00;;;;;;7395264;19;20014;-67
2023/09/08 06:19:00;;;;;;;14.65;7.90;;;17.90;1.00;;;;;;7392849;19;20037;-67
2023/09/08 06:21:30;;;;;;;14.70;8.52;;;18.10;1.00;;;;;;7391445;19;20010;-67
2023/09/08 06:24:00;;;;;;;12.05;8.07;;;18.10;1.00;;;;;;7392639;19;20035;-67
2023/09/08 06:26:30;;;;;;;10.65;7.88;;;18.10;1.00;;;;;;7393734;19;20021;-67
2023/09/08 06:29:02;;;;;;;10.38;7.82;;;18.20;1.00;;;;;;7393638;19;20015;-67
2023/09/08 06:31:32;;;;;;;10.98;8.10;;;18.20;1.00;;;;;;7393873;19;20018;-67
2023/09/08 06:34:02;;;;;;;9.15;7.35;;;18.20;1.00;;;;;;7394615;19;20019;-66
2023/09/08 06:36:34;;;;;;;12.38;7.47;;;18.30;1.00;;;;;;7394589;19;20080;-67
2023/09/08 06:39:05;;;;;;;9.77;7.35;;;18.30;1.00;;;;;;7395189;19;20009;-68
2023/09/08 06:41:48;;;;;;;11.55;7.75;;;18.50;1.00;;;;;;7392046;19;20010;-67
2023/09/08 06:44:22;;;;;;;9.77;6.93;;;18.70;1.00;;;;;;7394561;19;20177;-66
2023/09/08 06:46:52;;;;;;;8.48;6.80;;;18.90;1.00;;;;;;7393820;19;20006;-68
2023/09/08 06:49:22;;;;;;;12.82;7.15;;;19.00;1.00;;;;;;7392849;19;20014;-67
2023/09/08 06:51:52;;;;;;;12.25;6.70;;;19.10;1.00;;;;;;7392868;19;20038;-67
2023/09/08 06:54:22;;;;;;;8.98;6.55;;;19.00;1.00;;;;;;7392801;19;20474;-67
2023/09/08 06:56:52;;;;;;;10.40;6.68;;;19.10;1.00;;;;;;7394810;19;20027;-67
2023/09/08 06:59:24;;;;;;;9.57;7.28;;;19.30;1.00;;;;;;7394312;19;20086;-67
2023/09/08 07:01:54;;;;;;;11.10;6.95;;;19.20;1.00;;;;;;7392648;19;20006;-67
2023/09/08 07:04:25;;;;;;;11.55;6.20;;;19.50;1.00;;;;;;7393510;19;20014;-67
2023/09/08 07:06:55;;;;;;;7.70;6.30;;;19.50;1.00;;;;;;7393110;19;20010;-68
2023/09/08 07:09:25;;;;;;;9.35;7.13;;;19.60;1.00;;;;;;7390889;19;20423;-67
2023/09/08 07:11:55;;;;;;;8.15;6.97;;;19.70;1.00;;;;;;7392585;19;20010;-67
2023/09/08 07:14:28;;;;;;;8.43;6.68;;;19.90;1.00;;;;;;7393094;19;20463;-68
2023/09/08 07:16:57;;;;;;;12.45;6.95;;;19.90;1.00;;;;;;7391898;19;20014;-67
2023/09/08 07:19:28;;;;;;;8.20;6.25;;;19.90;1.00;;;;;;7393466;19;20501;-67
2023/09/08 07:21:58;;;;;;;9.70;6.28;;;20.10;1.00;;;;;;7392330;19;20029;-68
2023/09/08 07:24:28;;;;;;;8.20;6.95;;;20.10;1.00;;;;;;7392583;19;20483;-67
2023/09/08 07:26:58;;;;;;;7.70;6.47;;;20.20;1.00;;;;;;7394030;19;20062;-68
2023/09/08 07:29:30;;;;;;;8.18;6.00;;;20.20;1.00;;;;;;7391792;19;20098;-67
2023/09/08 07:32:00;;;;;;;9.07;6.30;;;20.40;1.00;;;;;;7391777;19;20018;-68
2023/09/08 07:34:30;;;;;;;9.45;6.45;;;20.50;1.00;;;;;;7390951;19;20034;-68
2023/09/08 07:37:11;;;;;;;8.27;6.05;;;20.60;1.00;;;;;;7425823;19;20757;-69
2023/09/08 07:39:41;;;;;;;9.32;6.90;;;20.70;1.00;;;;;;7423658;19;20031;-67
2023/09/08 07:42:11;;;;;;;8.05;6.30;;;20.80;1.00;;;;;;7425611;19;20042;-67
2023/09/08 07:44:41;;;;;;;8.23;6.22;;;20.90;1.00;;;;;;7423207;19;20025;-68
2023/09/08 07:47:11;;;;;;;8.02;6.85;;;21.00;1.00;;;;;;7423347;19;20482;-67
2023/09/08 07:49:41;;;;;;;10.05;7.10;;;21.20;1.00;;;;;;7423759;19;20010;-68
2023/09/08 07:52:13;;;;;;;8.48;6.93;;;21.20;1.00;;;;;;7424615;19;20020;-69
2023/09/08 07:54:43;;;;;;;10.70;7.47;;;21.20;1.00;;;;;;7422418;19;20025;-66
2023/09/08 07:57:13;;;;;;;8.82;6.53;;;21.00;1.00;;;;;;7423736;19;20397;-67
2023/09/08 07:59:45;;;;;;;8.20;6.75;;;21.20;1.00;;;;;;7422611;19;20013;-67
2023/09/08 08:02:15;;;;;;;9.77;6.90;;;21.40;1.00;;;;;;7424693;19;20018;-67
2023/09/08 08:04:45;;;;;;;8.95;6.43;;;21.60;1.00;;;;;;7421771;19;20013;-66
2023/09/08 08:07:17;;;;;;;11.93;6.63;;;21.70;1.00;;;;;;7425180;19;20063;-67
2023/09/08 08:09:47;;;;;;;8.52;6.22;;;21.70;1.00;;;;;;7423154;19;20081;-68
2023/09/08 08:12:17;;;;;;;9.25;6.78;;;21.90;1.00;;;;;;7424462;19;20106;-68
2023/09/08 08:14:47;;;;;;;10.32;6.55;;;22.00;1.00;;;;;;7422178;19;20405;-68
2023/09/08 08:17:19;;;;;;;11.27;6.78;;;22.10;1.00;;;;;;7422674;19;20029;-67
2023/09/08 08:19:49;;;;;;;8.02;5.80;;;22.30;1.00;;;;;;7422851;19;20482;-66
2023/09/08 08:22:21;;;;;;;7.68;5.93;;;22.40;1.00;;;;;;7424741;19;20347;-67
2023/09/08 08:24:51;;;;;;;8.40;6.35;;;22.50;1.00;;;;;;7421200;19;20483;-67
2023/09/08 08:27:21;;;;;;;10.45;6.28;;;22.50;1.00;;;;;;7422719;19;20031;-67
2023/09/08 08:29:51;;;;;;;7.80;5.78;;;22.70;1.00;;;;;;7420978;19;20031;-68
2023/09/08 08:32:21;;;;;;;6.82;5.50;;;22.80;1.00;;;;;;7422865;19;20010;-69
2023/09/08 08:34:51;;;;;;;8.57;6.53;;;23.00;1.00;;;;;;7422119;19;20109;-67
2023/09/08 08:37:24;;;;;;;9.63;6.30;;;22.70;1.00;;;;;;7422725;19;20013;-67
2023/09/08 08:39:53;;;;;;;9.02;5.95;;;22.90;1.00;;;;;;7422184;19;20014;-68
2023/09/08 08:42:24;;;;;;;6.88;5.88;;;23.20;1.00;;;;;;7422415;19;20038;-67
2023/09/08 08:44:55;;;;;;;9.57;5.63;;;23.10;1.00;;;;;;7421137;19;20010;-68
2023/09/08 08:47:27;;;;;;;7.10;5.70;;;23.20;1.00;;;;;;7405175;19;20496;-67
2023/09/08 08:49:58;;;;;;;9.80;5.65;;;23.30;1.00;;;;;;7390590;19;20098;-67
2023/09/08 08:52:32;;;;;;;6.88;6.03;;;23.30;1.00;;;;;;7390848;19;20011;-66
2023/09/08 08:55:03;;;;;;;8.20;6.65;;;23.40;1.00;;;;;;7390716;19;20018;-67
2023/09/08 08:57:34;;;;;;;7.40;5.80;;;23.50;1.00;;;;;;7392011;19;20006;-68
2023/09/08 09:00:08;;;;;;;8.13;6.20;;;23.70;1.00;;;;;;7392472;19;20098;-67
2023/09/08 09:02:41;;;;;;;8.23;5.68;;;23.60;1.00;;;;;;7395096;19;20011;-67
2023/09/08 09:05:14;;;;;;;10.38;6.60;;;23.70;1.00;;;;;;7392502;19;20510;-67
2023/09/08 09:07:47;;;;;;;7.07;6.37;;;23.80;1.00;;;;;;7394386;19;20015;-67
2023/09/08 09:10:17;;;;;;;9.10;6.10;;;24.00;1.00;;;;;;7394493;19;20840;-67
2023/09/08 09:12:47;;;;;;;9.30;6.30;;;24.10;1.00;;;;;;7392699;19;20034;-67
2023/09/08 09:15:17;;;;;;;7.22;5.18;;;24.10;1.00;;;;;;7392664;19;20120;-67
2023/09/08 09:18:04;;;;;;;8.02;6.07;;;24.00;1.00;;;;;;7393689;19;20483;-68
2023/09/08 09:20:35;;;;;;;10.10;6.18;;;24.00;1.00;;;;;;7392770;19;20074;-67
2023/09/08 09:23:08;;;;;;;9.10;6.07;;;24.00;1.00;;;;;;7392144;19;20086;-65
2023/09/08 09:25:38;;;;;;;7.90;6.20;;;24.20;1.00;;;;;;7393734;19;20010;-67
2023/09/08 09:28:08;;;;;;;7.75;5.35;;;24.50;1.00;;;;;;7392033;19;20545;-67
2023/09/08 09:30:54;;;;;;;9.30;5.70;;;24.60;1.00;;;;;;7392753;19;20021;-67
2023/09/08 09:33:25;;;;;;;9.38;6.22;;;24.70;1.00;;;;;;7392043;19;20477;-67
2023/09/08 09:35:57;;;;;;;8.25;6.05;;;25.00;1.00;;;;;;7390795;19;20011;-69
2023/09/08 09:38:30;;;;;;;7.78;5.90;;;25.10;1.00;;;;;;7391402;19;20020;-68
2023/09/08 09:41:00;;;;;;;7.03;5.80;;;24.70;1.00;;;;;;7391259;19;20105;-67
2023/09/08 09:43:31;;;;;;;7.50;6.05;;;24.70;1.00;;;;;;7390795;19;20011;-68
2023/09/08 09:46:02;;;;;;;12.80;6.35;;;24.70;1.00;;;;;;7389736;19;20082;-67
2023/09/08 09:48:32;;;;;;;7.00;6.00;;;24.70;1.00;;;;;;7391274;19;20466;-68
2023/09/08 09:51:18;;;;;;;7.55;5.80;;;24.90;1.00;;;;;;7389418;19;20010;-68
2023/09/08 09:53:54;;;;;;;7.22;5.70;;;24.90;1.00;;;;;;7387372;19;20034;-67
2023/09/08 09:56:26;;;;;;;6.70;5.55;;;25.10;1.00;;;;;;7391023;19;20044;-67
2023/09/08 09:58:56;;;;;;;7.50;5.90;;;25.30;1.00;;;;;;7387890;19;20318;-67
2023/09/08 10:01:28;;;;;;;8.57;5.18;;;25.30;1.00;;;;;;7390633;19;20038;-67
2023/09/08 10:03:58;;;;;;;7.00;5.57;;;25.40;1.00;;;;;;7388460;19;20018;-68
2023/09/08 10:06:28;;;;;;;7.95;5.82;;;25.50;1.00;;;;;;7391362;19;20022;-68
2023/09/08 10:09:01;;;;;;;8.57;6.07;;;25.70;1.00;;;;;;7389624;19;20474;-67
2023/09/08 10:11:35;;;;;;;9.47;6.13;;;25.50;1.00;;;;;;7383621;19;20042;-67
2023/09/08 10:14:07;;;;;;;10.48;6.25;;;25.30;1.00;;;;;;7382136;19;20052;-68
2023/09/08 10:16:41;;;;;;;9.25;6.25;;;25.50;1.00;;;;;;7382595;19;20022;-67
2023/09/08 10:19:12;;;;;;;6.15;5.55;;;25.50;1.00;;;;;;7385152;19;20014;-68
2023/09/08 10:21:45;;;;;;;8.02;5.78;;;25.80;1.00;;;;;;7383116;19;20046;-67
2023/09/08 10:24:25;;;;;;;8.05;5.55;;;25.80;1.00;;;;;;7384445;19;20014;-68
2023/09/08 10:27:03;;;;;;;11.73;7.78;;;25.80;1.00;;;;;;7384194;19;20098;-67
2023/09/08 10:29:36;;;;;;;7.75;5.60;;;25.80;1.00;;;;;;7384943;19;20018;-68
2023/09/08 10:32:08;;;;;;;7.45;5.63;;;25.80;1.00;;;;;;7381557;19;20957;-68
2023/09/08 10:34:39;;;;;;;7.00;5.70;;;25.90;1.00;;;;;;7383248;19;20011;-68
2023/09/08 10:37:24;;;;;;;7.72;6.13;;;26.00;1.00;;;;;;7384282;19;20018;-68
2023/09/08 10:39:57;;;;;;;9.15;5.50;;;26.10;1.00;;;;;;7383576;19;20498;-67
2023/09/08 10:42:29;;;;;;;11.52;5.97;;;25.80;1.00;;;;;;7384157;19;20015;-67
2023/09/08 10:45:03;;;;;;;8.07;5.40;;;25.90;1.00;;;;;;7382352;19;20058;-68
2023/09/08 10:47:36;;;;;;;9.60;5.93;;;26.10;1.00;;;;;;7384527;19;20541;-68
2023/09/08 10:50:08;;;;;;;7.72;5.60;;;25.90;1.00;;;;;;7384091;19;20026;-68
2023/09/08 10:52:38;;;;;;;8.13;5.78;;;26.00;1.00;;;;;;7384168;19;20018;-68
2023/09/08 10:55:13;;;;;;;7.80;6.13;;;26.10;1.00;;;;;;7381627;19;20029;-72
2023/09/08 10:57:48;;;;;;;6.30;5.43;;;25.90;1.00;;;;;;7382155;19;20018;-68
2023/09/08 11:00:20;;;;;;;9.95;5.57;;;26.10;1.00;;;;;;7380645;19;20014;-67
2023/09/08 11:02:54;;;;;;;10.02;5.32;;;26.30;1.00;;;;;;7382148;19;20022;-70
2023/09/08 11:05:25;;;;;;;7.82;5.38;;;26.10;1.00;;;;;;7380569;19;20026;-68
2023/09/08 11:07:58;;;;;;;9.35;5.60;;;26.00;1.00;;;;;;7381949;19;20070;-69
2023/09/08 11:10:37;;;;;;;9.33;5.37;;;26.00;1.00;;;;;;7381282;19;20104;-67
2023/09/08 11:13:08;;;;;;;6.18;5.25;;;26.30;1.00;;;;;;7380001;19;20411;-69
2023/09/08 11:15:40;;;;;;;7.72;5.57;;;26.40;1.00;;;;;;7380503;19;20514;-68
2023/09/08 11:18:11;;;;;;;6.32;5.63;;;26.50;1.00;;;;;;7380745;19;20505;-70
2023/09/08 11:20:44;;;;;;;5.95;5.35;;;26.60;1.00;;;;;;7381085;19;20022;-69
2023/09/08 11:23:17;;;;;;;10.77;5.65;;;26.40;1.00;;;;;;7382458;19;20094;-69
2023/09/08 11:25:51;;;;;;;7.88;5.07;;;26.50;1.00;;;;;;7381037;19;20523;-69
2023/09/08 11:28:25;;;;;;;6.57;4.80;;;26.40;1.00;;;;;;7381709;19;20031;-70
2023/09/08 11:30:56;;;;;;;7.20;5.57;;;26.50;1.00;;;;;;7380946;19;20026;-67
2023/09/08 11:33:27;;;;;;;8.52;5.55;;;26.70;1.00;;;;;;7379903;19;20073;-68
2023/09/08 11:35:58;;;;;;;5.82;5.15;;;26.70;1.00;;;;;;7381636;19;20052;-68
2023/09/08 11:38:29;;;;;;;8.18;5.53;;;26.80;1.00;;;;;;7381621;19;20510;-68
2023/09/08 11:41:03;;;;;;;5.88;5.10;;;26.80;1.00;;;;;;7381279;19;20481;-68
2023/09/08 11:43:36;;;;;;;8.02;5.60;;;26.70;1.00;;;;;;7380304;19;20478;-68
2023/09/08 11:46:07;;;;;;;9.13;5.18;;;26.70;1.00;;;;;;7381467;19;20103;-69
2023/09/08 11:48:38;;;;;;;6.93;4.95;;;26.70;1.00;;;;;;7380879;19;20021;-68
2023/09/08 11:51:10;;;;;;;5.85;4.82;;;27.00;1.00;;;;;;7382042;19;20089;-67
2023/09/08 11:53:40;;;;;;;8.85;4.68;;;26.90;1.00;;;;;;7380802;19;20514;-68
2023/09/08 11:56:13;;;;;;;7.53;5.50;;;27.10;1.00;;;;;;7381898;19;20018;-67
2023/09/08 11:58:45;;;;;;;5.60;5.00;;;27.00;1.00;;;;;;7382303;19;20014;-68
2023/09/08 12:01:17;;;;;;;6.15;5.20;;;26.80;1.00;;;;;;7382261;19;20015;-68
2023/09/08 12:03:57;;;;;;;7.03;5.13;;;26.70;1.00;;;;;;7380908;19;20014;-67
2023/09/08 12:06:28;;;;;;;7.63;5.47;;;26.60;1.00;;;;;;7381623;19;20014;-69
2023/09/08 12:09:02;;;;;;;6.28;5.38;;;26.90;1.00;;;;;;7381811;19;20019;-68
2023/09/08 12:11:41;;;;;;;;;;;26.80;1.00;;;;;;7382512;19;20015;-68
2023/09/08 12:14:12;;;;;;;7.50;5.18;;;27.00;1.00;;;;;;7380197;19;20332;-68
2023/09/08 12:16:43;;;;;;;7.72;5.15;;;26.90;1.00;;;;;;7380785;19;20014;-68
2023/09/08 12:19:31;;;;;;;8.77;5.47;;;27.00;1.00;;;;;;7380333;19;20014;-68
2023/09/08 12:22:04;;;;;;;8.65;5.70;;;27.10;1.00;;;;;;7381468;19;20018;-67
2023/09/08 12:24:50;;;;;;;9.65;5.63;;;27.20;1.00;;;;;;7386842;19;20014;-68
2023/09/08 12:27:23;;;;;;;6.57;5.30;;;27.30;1.00;;;;;;7387204;19;20015;-68
2023/09/08 12:30:00;;;;;;;10.23;5.28;;;27.30;1.00;;;;;;7386732;19;20022;-67
2023/09/08 12:32:32;;;;;;;6.20;5.20;;;27.40;1.00;;;;;;7387722;19;20010;-67
2023/09/08 12:35:06;;;;;;;12.25;5.57;;;27.30;1.00;;;;;;7385950;19;20087;-66
2023/09/08 12:37:37;;;;;;;6.65;5.25;;;27.50;1.00;;;;;;7387472;19;20011;-69
2023/09/08 12:40:09;;;;;;;11.07;5.95;;;27.60;1.00;;;;;;7386404;19;20018;-69
2023/09/08 12:42:42;;;;;;;6.78;6.07;;;27.50;1.00;;;;;;7387043;19;20025;-68
2023/09/08 12:45:20;;;;;;;6.38;5.32;;;27.50;1.00;;;;;;7371386;19;20082;-68
2023/09/08 12:47:50;;;;;;;5.85;5.13;;;27.50;1.00;;;;;;7367636;19;20021;-68
2023/09/08 12:50:20;;;;;;;9.45;5.20;;;27.60;1.00;;;;;;7366658;19;20023;-68
2023/09/08 12:52:50;;;;;;;6.55;5.10;;;27.80;1.00;;;;;;7366179;19;20014;-67
2023/09/08 12:55:20;;;;;;;7.25;5.35;;;27.60;1.00;;;;;;7367961;19;20028;-65
2023/09/08 12:57:54;;;;;;;5.45;4.53;;;27.80;1.00;;;;;;7364653;19;20093;-67
2023/09/08 13:00:25;;;;;;;;;;;27.60;1.00;;;;;;7369480;19;20086;-68
2023/09/08 13:02:55;;;;;;;7.00;4.57;;;27.80;1.00;;;;;;7366987;19;19918;-68
2023/09/08 13:05:27;;;;;;;4.88;4.38;;;28.00;1.00;;;;;;7366875;19;20050;-68
2023/09/08 13:07:57;;;;;;;6.35;4.93;;;28.10;1.00;;;;;;7367776;19;20018;-67
2023/09/08 13:10:27;;;;;;;5.63;4.65;;;27.80;1.00;;;;;;7368550;19;20378;-68
2023/09/08 13:13:00;;;;;;;6.53;5.65;;;28.00;1.00;;;;;;7366290;19;20475;-67